Time;durP1;ratioP1;P1;durP2;ratioP2;P2;SDS_P1;SDS_P2;PMS_P1;PMS_P2;Temp;Humidity;BMP_temperature;BMP_pressure;BME280_temperature;BME280_humidity;BME280_pressure;Samples;Min_cycle;Max_cycle;Signal;HPM_P1;HPM_P2
2023/11/26 00:01:42;;;;;;;5.90;4.20;;;20.70;54.50;;;;;;5037936;28;20453;-65
2023/11/26 00:04:08;;;;;;;6.95;4.95;;;20.70;54.60;;;;;;5040215;28;20029;-65
2023/11/26 00:06:34;;;;;;;6.60;4.43;;;20.70;54.60;;;;;;5038766;28;20380;-66
2023/11/26 00:09:00;;;;;;;6.30;4.60;;;20.70;54.60;;;;;;5028999;28;20065;-66
2023/11/26 00:11:26;;;;;;;6.78;4.88;;;20.70;54.60;;;;;;5038519;28;20059;-68
2023/11/26 00:13:52;;;;;;;5.82;4.22;;;20.60;54.60;;;;;;5041263;28;20032;-65
2023/11/26 00:16:19;;;;;;;5.97;4.13;;;20.60;55.10;;;;;;5040074;28;20033;-66
2023/11/26 00:18:45;;;;;;;5.35;4.20;;;20.60;54.60;;;;;;5038241;28;20029;-66
2023/11/26 00:21:11;;;;;;;5.85;3.97;;;20.60;54.60;;;;;;5039180;28;20495;-66
2023/11/26 00:23:37;;;;;;;5.15;3.80;;;20.60;54.60;;;;;;5039082;28;20025;-74
2023/11/26 00:26:02;;;;;;;5.25;4.00;;;20.60;54.60;;;;;;5038855;28;20093;-73
2023/11/26 00:28:28;;;;;;;6.18;4.15;;;20.60;54.60;;;;;;5040037;28;20033;-73
2023/11/26 00:30:55;;;;;;;5.70;4.07;;;20.50;54.60;;;;;;5041931;28;20135;-72
2023/11/26 00:33:21;;;;;;;6.22;4.22;;;20.50;54.60;;;;;;5020201;28;20033;-73
2023/11/26 00:35:47;;;;;;;5.75;4.38;;;20.50;54.60;;;;;;5039129;28;20492;-72
2023/11/26 00:38:12;;;;;;;6.10;4.03;;;20.50;54.60;;;;;;5038911;28;20068;-73
2023/11/26 00:40:38;;;;;;;5.85;4.00;;;20.50;54.60;;;;;;5039486;28;20037;-72
2023/11/26 00:43:04;;;;;;;6.57;4.30;;;20.50;54.60;;;;;;5038599;28;20040;-72
2023/11/26 00:45:30;;;;;;;5.53;3.65;;;20.40;55.10;;;;;;5040235;28;20034;-72
2023/11/26 00:47:57;;;;;;;5.35;3.97;;;20.40;54.60;;;;;;5036869;28;20033;-72
2023/11/26 00:50:23;;;;;;;5.43;4.03;;;20.40;54.70;;;;;;5022773;28;20025;-72
2023/11/26 00:52:49;;;;;;;5.43;4.07;;;20.40;54.70;;;;;;5035044;28;20025;-71
2023/11/26 00:55:15;;;;;;;5.30;3.88;;;20.40;54.70;;;;;;5037588;28;20029;-68
2023/11/26 00:57:41;;;;;;;5.25;3.53;;;20.40;54.70;;;;;;5039225;28;20028;-68
2023/11/26 01:00:10;;;;;;;5.60;4.13;;;20.40;54.70;;;;;;5039708;28;20025;-68
2023/11/26 01:02:36;;;;;;;5.25;3.70;;;20.40;54.70;;;;;;5037138;28;20018;-68
2023/11/26 01:05:03;;;;;;;5.65;3.88;;;20.30;54.70;;;;;;5040791;28;20081;-71
2023/11/26 01:07:30;;;;;;;5.03;3.55;;;20.30;54.70;;;;;;5038610;28;20028;-71
2023/11/26 01:09:57;;;;;;;5.05;3.47;;;20.30;54.70;;;;;;5020364;28;20506;-70
2023/11/26 01:12:22;;;;;;;5.45;3.83;;;20.30;54.70;;;;;;5038892;28;20050;-71
2023/11/26 01:14:48;;;;;;;4.57;3.60;;;20.30;54.70;;;;;;5038202;28;20033;-70
2023/11/26 01:17:14;;;;;;;4.93;3.50;;;20.30;54.70;;;;;;5038965;28;20481;-71
2023/11/26 01:19:39;;;;;;;5.10;3.53;;;20.30;54.70;;;;;;5037325;28;20026;-71
2023/11/26 01:22:05;;;;;;;4.95;3.55;;;20.20;54.70;;;;;;5038812;28;20612;-71
2023/11/26 01:24:31;;;;;;;3.90;3.00;;;20.30;54.80;;;;;;5021148;28;20037;-71
2023/11/26 01:26:56;;;;;;;5.05;3.15;;;20.20;54.80;;;;;;5021098;28;20622;-71
2023/11/26 01:29:22;;;;;;;4.63;3.15;;;20.20;54.70;;;;;;5036566;28;20026;-71
2023/11/26 01:31:47;;;;;;;4.22;3.25;;;20.20;54.70;;;;;;5038758;28;20575;-71
2023/11/26 01:34:13;;;;;;;5.68;3.33;;;20.20;54.80;;;;;;5039251;28;20032;-67
2023/11/26 01:36:41;;;;;;;5.20;3.47;;;20.20;54.80;;;;;;5037963;28;20397;-67
2023/11/26 01:39:07;;;;;;;4.40;3.35;;;20.20;54.80;;;;;;5040327;28;20484;-67
2023/11/26 01:41:33;;;;;;;4.35;3.10;;;20.10;54.80;;;;;;5037348;28;20049;-67
2023/11/26 01:43:59;;;;;;;4.53;3.20;;;20.10;54.80;;;;;;5038782;28;20648;-67
2023/11/26 01:46:27;;;;;;;4.57;3.13;;;20.10;54.80;;;;;;5022334;28;20040;-67
2023/11/26 01:48:53;;;;;;;4.65;3.40;;;20.10;54.80;;;;;;5036810;28;20091;-68
2023/11/26 01:51:20;;;;;;;3.95;2.80;;;20.10;54.80;;;;;;5035735;28;20361;-67
2023/11/26 01:53:52;;;;;;;4.00;2.75;;;20.10;54.80;;;;;;5035455;28;20509;-68
2023/11/26 01:56:18;;;;;;;4.15;3.10;;;20.10;54.90;;;;;;5037525;28;20032;-67
2023/11/26 01:58:44;;;;;;;4.57;3.05;;;20.10;54.80;;;;;;5037319;28;20103;-67
2023/11/26 02:01:12;;;;;;;4.28;3.10;;;20.10;54.80;;;;;;5037331;28;20500;-67
2023/11/26 02:03:37;;;;;;;4.30;3.22;;;20.00;54.80;;;;;;5037159;28;20021;-68
2023/11/26 02:06:04;;;;;;;3.75;2.75;;;20.00;54.80;;;;;;5019512;28;20100;-67
2023/11/26 02:08:32;;;;;;;3.55;2.60;;;20.00;54.80;;;;;;5034525;28;20029;-67
2023/11/26 02:10:58;;;;;;;5.07;2.97;;;20.00;54.80;;;;;;5018601;28;20029;-67
2023/11/26 02:13:25;;;;;;;4.05;2.97;;;20.00;54.80;;;;;;5038565;28;20040;-68
2023/11/26 02:15:51;;;;;;;4.30;2.80;;;20.00;54.90;;;;;;5036740;28;20111;-68
2023/11/26 02:18:19;;;;;;;4.28;2.95;;;20.00;54.90;;;;;;5037609;28;20037;-67
2023/11/26 02:20:45;;;;;;;4.05;2.70;;;19.90;54.80;;;;;;5037370;28;20025;-68
2023/11/26 02:23:12;;;;;;;4.40;2.85;;;19.90;54.80;;;;;;5036091;28;20484;-68
2023/11/26 02:25:38;;;;;;;3.53;2.40;;;19.90;54.90;;;;;;5036739;28;20026;-67
2023/11/26 02:28:06;;;;;;;3.90;2.70;;;19.90;54.90;;;;;;5038380;28;20026;-68
2023/11/26 02:30:33;;;;;;;4.38;2.90;;;19.90;54.90;;;;;;5037524;28;20066;-68
2023/11/26 02:32:58;;;;;;;3.88;2.88;;;19.90;54.90;;;;;;5037718;28;20477;-67
2023/11/26 02:35:25;;;;;;;4.10;2.65;;;19.90;55.00;;;;;;5038417;28;20030;-68
2023/11/26 02:37:52;;;;;;;3.85;2.40;;;19.90;55.00;;;;;;5019367;28;20040;-68
2023/11/26 02:40:19;;;;;;;3.70;2.63;;;19.90;55.00;;;;;;5037462;28;20028;-68
2023/11/26 02:42:45;;;;;;;3.78;2.55;;;19.90;55.00;;;;;;5039423;28;20485;-68
2023/11/26 02:45:11;;;;;;;4.07;2.70;;;19.90;55.00;;;;;;5037777;28;20036;-68
2023/11/26 02:47:37;;;;;;;4.00;2.70;;;19.80;55.00;;;;;;5037211;28;20431;-68
2023/11/26 02:50:04;;;;;;;3.85;2.72;;;19.80;55.00;;;;;;5020932;28;20037;-68
2023/11/26 02:52:30;;;;;;;3.03;2.13;;;19.80;55.00;;;;;;5036439;28;20021;-68
2023/11/26 02:54:55;;;;;;;3.83;2.60;;;19.80;55.00;;;;;;5036179;28;20529;-67
2023/11/26 02:57:21;;;;;;;3.60;2.30;;;19.80;55.00;;;;;;5037857;28;20052;-67
2023/11/26 02:59:47;;;;;;;3.20;2.17;;;19.80;55.00;;;;;;5036424;28;20041;-68
2023/11/26 03:02:14;;;;;;;2.88;2.00;;;19.80;55.00;;;;;;5034542;28;20021;-67
2023/11/26 03:04:51;;;;;;;3.60;2.50;;;19.80;55.00;;;;;;5037621;28;20029;-67
2023/11/26 03:07:20;;;;;;;3.40;2.30;;;19.80;55.00;;;;;;5034914;27;20051;-68
2023/11/26 03:15:15;;;;;;;3.30;2.30;;;19.70;55.00;;;;;;5035460;28;20109;-70
2023/11/26 03:17:41;;;;;;;3.28;2.20;;;19.70;55.10;;;;;;5037323;28;20486;-69
2023/11/26 03:20:08;;;;;;;3.33;2.13;;;19.70;55.10;;;;;;5019341;28;20061;-70
2023/11/26 03:22:36;;;;;;;3.15;2.05;;;19.70;55.10;;;;;;5035451;28;20029;-69
2023/11/26 03:25:05;;;;;;;2.90;2.13;;;19.70;55.10;;;;;;5037637;28;20110;-67
2023/11/26 03:27:33;;;;;;;3.08;2.10;;;19.70;55.10;;;;;;5033451;28;20070;-68
2023/11/26 03:30:00;;;;;;;2.88;1.83;;;19.70;55.10;;;;;;5036220;28;20484;-68
2023/11/26 03:32:25;;;;;;;3.00;1.80;;;19.70;55.20;;;;;;5033546;28;20120;-67
2023/11/26 03:34:51;;;;;;;3.28;2.00;;;19.70;55.20;;;;;;5036487;28;20101;-68
2023/11/26 03:37:17;;;;;;;2.90;2.13;;;19.60;55.10;;;;;;5036497;28;20032;-67
2023/11/26 03:39:45;;;;;;;3.30;2.00;;;19.70;55.20;;;;;;5018702;28;20477;-67
2023/11/26 03:42:14;;;;;;;3.00;1.90;;;19.60;55.20;;;;;;5036800;28;20044;-67
2023/11/26 03:44:40;;;;;;;3.35;2.20;;;19.60;55.20;;;;;;5035436;28;20077;-67
2023/11/26 03:47:06;;;;;;;2.83;2.03;;;19.60;55.20;;;;;;5038372;28;20032;-68
2023/11/26 03:49:32;;;;;;;2.80;1.95;;;19.60;55.30;;;;;;5034651;28;20044;-68
2023/11/26 03:51:58;;;;;;;2.60;1.70;;;19.60;55.30;;;;;;5015607;28;20025;-67
2023/11/26 03:54:24;;;;;;;2.97;1.92;;;19.60;55.30;;;;;;5015016;28;20112;-66
2023/11/26 03:56:49;;;;;;;2.58;1.70;;;19.50;55.30;;;;;;5019449;28;20465;-66
2023/11/26 03:59:15;;;;;;;2.50;1.70;;;19.50;55.30;;;;;;5036297;28;20029;-66
2023/11/26 04:01:41;;;;;;;2.85;1.65;;;19.50;55.30;;;;;;5017710;28;20033;-66
2023/11/26 04:04:08;;;;;;;3.00;1.85;;;19.50;55.40;;;;;;5037573;28;20059;-66
2023/11/26 04:06:34;;;;;;;2.78;1.95;;;19.50;55.40;;;;;;5036135;28;20079;-66
2023/11/26 04:09:00;;;;;;;2.40;1.63;;;19.50;55.40;;;;;;5034186;28;20120;-66
2023/11/26 04:11:25;;;;;;;2.47;1.73;;;19.50;55.50;;;;;;5017684;28;20147;-66
2023/11/26 04:13:51;;;;;;;3.13;1.88;;;19.50;55.50;;;;;;5037487;28;20404;-67
2023/11/26 04:16:18;;;;;;;2.50;1.70;;;19.40;55.50;;;;;;5035459;28;20036;-66
2023/11/26 04:18:45;;;;;;;2.45;1.63;;;19.50;55.60;;;;;;5035943;28;20021;-66
2023/11/26 04:21:12;;;;;;;2.47;1.70;;;19.40;55.60;;;;;;5035477;28;20097;-66
2023/11/26 04:23:38;;;;;;;2.40;1.60;;;19.40;55.60;;;;;;5034424;28;20028;-66
2023/11/26 04:26:04;;;;;;;2.80;1.70;;;19.40;55.70;;;;;;5036684;28;20036;-67
2023/11/26 04:28:30;;;;;;;2.40;1.70;;;19.40;55.70;;;;;;5034593;28;20025;-67
2023/11/26 04:30:57;;;;;;;2.85;1.67;;;19.40;55.70;;;;;;5037130;28;20052;-67
2023/11/26 04:33:22;;;;;;;2.60;1.58;;;19.40;55.70;;;;;;5036269;28;20498;-67
2023/11/26 04:35:48;;;;;;;2.67;1.70;;;19.40;55.80;;;;;;5033714;28;20029;-65
2023/11/26 04:38:13;;;;;;;2.20;1.50;;;19.40;55.80;;;;;;5032888;28;20039;-66
2023/11/26 04:40:39;;;;;;;2.70;1.70;;;19.40;55.80;;;;;;5033573;28;20475;-65
2023/11/26 04:43:06;;;;;;;2.40;1.65;;;19.40;55.80;;;;;;5037658;28;20480;-65
2023/11/26 04:45:31;;;;;;;2.40;1.40;;;19.40;55.90;;;;;;5034836;28;20026;-65
2023/11/26 04:47:57;;;;;;;2.40;1.60;;;19.30;55.80;;;;;;5037958;28;20078;-65
2023/11/26 04:50:24;;;;;;;2.72;1.70;;;19.30;55.80;;;;;;5037746;28;20029;-65
2023/11/26 04:52:50;;;;;;;2.70;1.80;;;19.30;55.90;;;;;;5038242;28;20547;-65
2023/11/26 04:55:19;;;;;;;2.97;1.65;;;19.30;55.90;;;;;;5039381;28;20022;-65
2023/11/26 04:57:49;;;;;;;2.53;1.63;;;19.30;55.90;;;;;;5039733;28;20025;-65
2023/11/26 05:00:17;;;;;;;1.85;1.38;;;19.30;55.90;;;;;;5036741;28;20041;-65
2023/11/26 05:02:43;;;;;;;2.70;1.55;;;19.30;55.90;;;;;;5035194;28;20104;-65
2023/11/26 05:05:10;;;;;;;2.67;1.70;;;19.30;56.00;;;;;;5038171;28;20108;-68
2023/11/26 05:07:42;;;;;;;2.33;1.40;;;19.30;56.00;;;;;;5019998;28;20025;-68
2023/11/26 05:10:09;;;;;;;2.20;1.42;;;19.30;56.00;;;;;;5037607;28;20397;-68
2023/11/26 05:12:35;;;;;;;2.20;1.42;;;19.30;56.00;;;;;;5039337;28;20469;-68
2023/11/26 05:15:01;;;;;;;2.63;1.50;;;19.30;56.00;;;;;;5037471;28;20051;-68
2023/11/26 05:17:27;;;;;;;2.53;1.60;;;19.30;56.00;;;;;;5036219;28;20025;-68
2023/11/26 05:19:53;;;;;;;2.70;1.42;;;19.30;56.00;;;;;;5038079;28;20057;-68
2023/11/26 05:22:18;;;;;;;2.65;1.60;;;19.30;56.00;;;;;;5038525;28;20040;-69
2023/11/26 05:24:44;;;;;;;2.47;1.48;;;19.20;56.00;;;;;;5027802;28;20472;-68
2023/11/26 05:27:10;;;;;;;2.33;1.58;;;19.20;56.00;;;;;;5019429;28;20421;-68
2023/11/26 05:29:35;;;;;;;2.42;1.60;;;19.20;56.00;;;;;;5038921;28;20037;-68
2023/11/26 05:32:01;;;;;;;1.95;1.40;;;19.20;56.00;;;;;;5036257;28;20032;-68
2023/11/26 05:34:27;;;;;;;2.28;1.50;;;19.20;56.50;;;;;;5038235;28;20116;-68
2023/11/26 05:36:52;;;;;;;2.28;1.48;;;19.20;56.00;;;;;;5030224;27;20736;-68
2023/11/26 05:39:19;;;;;;;2.03;1.42;;;19.20;56.00;;;;;;5037838;28;20070;-68
2023/11/26 05:41:45;;;;;;;2.25;1.33;;;19.20;56.10;;;;;;5033364;28;20553;-68
2023/11/26 05:44:10;;;;;;;2.38;1.48;;;19.20;56.10;;;;;;5035175;28;20029;-68
2023/11/26 05:46:36;;;;;;;2.28;1.45;;;19.20;56.10;;;;;;5036934;28;20032;-68
2023/11/26 05:49:02;;;;;;;2.25;1.52;;;19.20;56.10;;;;;;5037829;28;20864;-68
2023/11/26 05:51:27;;;;;;;2.22;1.42;;;19.20;56.10;;;;;;5036167;28;20060;-69
2023/11/26 05:53:54;;;;;;;2.13;1.40;;;19.20;56.10;;;;;;5036479;28;20021;-68
2023/11/26 05:56:19;;;;;;;1.67;1.13;;;19.20;56.10;;;;;;5036697;28;20388;-68
2023/11/26 05:58:46;;;;;;;3.30;1.40;;;19.20;56.10;;;;;;5037030;28;20025;-68
2023/11/26 06:01:12;;;;;;;1.80;1.30;;;19.20;56.10;;;;;;5038532;28;20025;-68
2023/11/26 06:03:37;;;;;;;2.20;1.48;;;19.20;56.10;;;;;;5036002;28;20037;-68
2023/11/26 06:06:04;;;;;;;2.63;1.60;;;19.20;56.10;;;;;;5037284;28;20025;-67
2023/11/26 06:08:30;;;;;;;2.17;1.40;;;19.20;56.20;;;;;;5035616;28;20022;-67
2023/11/26 06:10:55;;;;;;;1.85;1.20;;;19.20;56.20;;;;;;5035796;28;20029;-68
2023/11/26 06:13:21;;;;;;;2.22;1.23;;;19.20;56.20;;;;;;5037272;28;20104;-68
2023/11/26 06:15:47;;;;;;;2.00;1.20;;;19.20;56.20;;;;;;5037930;28;20021;-67
2023/11/26 06:18:12;;;;;;;2.10;1.27;;;19.10;56.10;;;;;;5037517;28;20045;-67
2023/11/26 06:20:38;;;;;;;2.20;1.40;;;19.10;56.10;;;;;;5035986;28;20377;-67
2023/11/26 06:23:04;;;;;;;1.83;1.20;;;19.20;56.20;;;;;;5020311;28;20534;-67
2023/11/26 06:25:29;;;;;;;1.85;1.10;;;19.20;56.20;;;;;;5035509;28;20469;-67
2023/11/26 06:27:55;;;;;;;2.10;1.40;;;19.20;56.20;;;;;;5018659;28;20041;-66
2023/11/26 06:30:21;;;;;;;1.90;1.17;;;19.20;56.20;;;;;;5019135;28;20024;-67
2023/11/26 06:32:47;;;;;;;2.13;1.35;;;19.10;56.20;;;;;;5036071;28;20132;-67
2023/11/26 06:35:13;;;;;;;1.65;1.23;;;19.20;56.20;;;;;;5038143;28;20093;-67
2023/11/26 06:37:39;;;;;;;1.52;1.20;;;19.10;56.10;;;;;;5039452;28;20687;-67
2023/11/26 06:40:05;;;;;;;1.75;1.35;;;19.10;56.10;;;;;;5018356;28;20036;-67
2023/11/26 06:42:32;;;;;;;1.92;1.27;;;19.20;56.10;;;;;;5035379;28;20036;-67
2023/11/26 06:44:57;;;;;;;1.90;1.30;;;19.20;56.20;;;;;;5037682;28;20029;-67
2023/11/26 06:47:29;;;;;;;1.75;1.15;;;19.20;56.70;;;;;;5037273;28;20124;-67
2023/11/26 06:49:55;;;;;;;1.80;1.25;;;19.10;56.10;;;;;;5035191;28;20033;-67
2023/11/26 06:52:21;;;;;;;1.88;1.30;;;19.20;56.10;;;;;;5035419;28;20048;-67
2023/11/26 06:54:46;;;;;;;1.55;1.10;;;19.10;56.10;;;;;;5034807;28;20026;-67
2023/11/26 06:57:12;;;;;;;2.10;1.30;;;19.10;56.10;;;;;;5019616;28;20028;-66
2023/11/26 06:59:37;;;;;;;1.92;1.20;;;19.10;56.10;;;;;;5036013;28;20438;-66
2023/11/26 07:02:03;;;;;;;1.35;1.00;;;19.10;56.10;;;;;;5038442;28;20036;-66
2023/11/26 07:04:29;;;;;;;1.50;1.20;;;19.10;56.10;;;;;;5036798;28;20102;-66
2023/11/26 07:06:55;;;;;;;1.77;1.08;;;19.10;56.10;;;;;;5035649;28;20033;-65
2023/11/26 07:09:22;;;;;;;2.05;1.20;;;19.10;56.10;;;;;;5035255;28;20053;-65
2023/11/26 07:11:48;;;;;;;1.75;1.13;;;19.10;56.10;;;;;;5037019;28;20047;-66
2023/11/26 07:14:13;;;;;;;2.00;1.20;;;19.10;56.10;;;;;;5022675;28;20025;-66
2023/11/26 07:16:39;;;;;;;1.63;1.08;;;19.10;56.10;;;;;;5036994;28;20025;-66
2023/11/26 07:19:04;;;;;;;1.90;1.17;;;19.10;56.10;;;;;;5034926;28;20025;-66
2023/11/26 07:21:30;;;;;;;2.03;1.10;;;19.10;56.10;;;;;;5036042;28;20357;-66
2023/11/26 07:23:56;;;;;;;1.77;1.10;;;19.10;56.10;;;;;;5018118;28;20033;-65
2023/11/26 07:26:21;;;;;;;1.63;1.00;;;19.10;56.20;;;;;;5032987;28;20044;-66
2023/11/26 07:28:50;;;;;;;1.58;1.00;;;19.10;56.10;;;;;;5035651;28;20090;-67
2023/11/26 07:31:20;;;;;;;2.25;1.20;;;19.10;56.20;;;;;;5035938;28;20017;-66
2023/11/26 07:33:46;;;;;;;1.30;1.00;;;19.10;56.20;;;;;;5016360;28;20541;-67
2023/11/26 07:36:14;;;;;;;1.88;1.23;;;19.10;56.20;;;;;;5035801;28;20100;-67
2023/11/26 07:38:41;;;;;;;1.73;0.90;;;19.10;56.20;;;;;;5035652;28;20040;-67
2023/11/26 07:41:08;;;;;;;1.15;0.82;;;19.10;56.20;;;;;;5031640;28;20040;-66
2023/11/26 07:43:37;;;;;;;1.38;0.90;;;19.10;56.20;;;;;;5035678;28;20420;-66
2023/11/26 07:46:04;;;;;;;1.33;1.05;;;19.10;56.20;;;;;;5038013;28;20552;-66
2023/11/26 07:48:30;;;;;;;1.70;1.10;;;19.10;56.20;;;;;;5037060;28;20045;-66
2023/11/26 07:50:55;;;;;;;1.60;1.00;;;19.10;56.20;;;;;;5035642;28;20029;-67
2023/11/26 07:53:24;;;;;;;1.45;1.00;;;19.00;56.20;;;;;;5034570;28;20478;-67
2023/11/26 07:55:56;;;;;;;1.48;0.95;;;19.10;56.20;;;;;;5035629;28;20021;-66
2023/11/26 07:58:25;;;;;;;1.67;1.20;;;19.10;56.30;;;;;;5038129;28;20499;-66
2023/11/26 08:00:51;;;;;;;1.90;1.20;;;19.10;56.20;;;;;;5037249;28;20037;-66
2023/11/26 08:03:17;;;;;;;1.90;1.00;;;19.10;56.70;;;;;;5035704;28;20388;-66
2023/11/26 08:05:43;;;;;;;2.13;0.95;;;19.10;56.30;;;;;;5034440;28;20025;-66
2023/11/26 08:08:10;;;;;;;1.67;0.98;;;19.00;56.20;;;;;;5034909;28;20026;-67
2023/11/26 08:10:36;;;;;;;2.17;1.02;;;19.10;56.30;;;;;;5035148;28;20025;-67
2023/11/26 08:13:02;;;;;;;1.80;1.10;;;19.00;56.20;;;;;;5035938;28;20047;-67
2023/11/26 08:15:28;;;;;;;1.48;0.98;;;19.00;56.20;;;;;;5035481;28;20025;-67
2023/11/26 08:17:55;;;;;;;1.48;0.90;;;19.00;56.20;;;;;;5037172;28;20029;-67
2023/11/26 08:20:22;;;;;;;1.75;1.02;;;19.00;56.20;;;;;;5038739;28;20030;-67
2023/11/26 08:22:48;;;;;;;1.17;0.90;;;19.00;56.30;;;;;;5019382;28;20053;-70
2023/11/26 08:25:19;;;;;;;1.50;0.93;;;19.00;56.30;;;;;;5039418;28;20021;-71
2023/11/26 08:27:46;;;;;;;1.52;0.90;;;19.00;56.30;;;;;;5021702;28;20048;-70
2023/11/26 08:30:13;;;;;;;1.25;0.90;;;19.00;56.30;;;;;;5039334;28;20040;-71
2023/11/26 08:32:44;;;;;;;1.27;0.85;;;19.00;56.30;;;;;;5038290;28;20022;-71
2023/11/26 08:35:11;;;;;;;1.00;0.80;;;19.00;56.30;;;;;;5039676;28;20029;-71
2023/11/26 08:37:43;;;;;;;1.00;0.80;;;19.00;56.30;;;;;;5040436;28;20496;-66
2023/11/26 08:40:11;;;;;;;1.55;0.95;;;19.00;56.30;;;;;;5037624;28;20029;-66
2023/11/26 08:42:37;;;;;;;1.15;0.90;;;19.00;56.30;;;;;;5038300;28;20187;-66
2023/11/26 08:45:03;;;;;;;1.30;0.90;;;19.00;56.30;;;;;;5035790;28;20083;-66
2023/11/26 08:47:30;;;;;;;1.13;0.80;;;19.00;56.30;;;;;;5039209;28;21062;-67
2023/11/26 08:49:56;;;;;;;1.83;1.00;;;19.00;56.30;;;;;;5036294;28;20104;-66
2023/11/26 08:52:25;;;;;;;1.25;0.77;;;19.00;56.30;;;;;;5036319;28;20408;-66
2023/11/26 08:54:50;;;;;;;1.65;1.00;;;19.00;56.30;;;;;;5038964;28;20017;-67
2023/11/26 08:57:20;;;;;;;1.05;0.80;;;19.00;56.30;;;;;;5038533;28;20040;-66
2023/11/26 08:59:48;;;;;;;1.42;0.90;;;19.00;56.40;;;;;;5021266;28;20063;-66
2023/11/26 09:02:14;;;;;;;1.20;1.00;;;19.00;56.40;;;;;;5035958;28;20021;-66
2023/11/26 09:04:40;;;;;;;1.35;0.95;;;19.00;56.30;;;;;;5036656;28;20037;-66
2023/11/26 09:07:05;;;;;;;1.45;1.02;;;19.00;56.30;;;;;;5040362;28;20029;-70
2023/11/26 09:09:31;;;;;;;1.40;0.93;;;19.00;56.30;;;;;;5038692;28;20049;-71
2023/11/26 09:11:57;;;;;;;1.48;1.00;;;19.00;56.40;;;;;;5035959;28;20584;-71
2023/11/26 09:14:23;;;;;;;1.42;0.80;;;19.00;56.40;;;;;;5019798;28;20032;-70
2023/11/26 09:16:49;;;;;;;1.20;0.80;;;19.00;56.40;;;;;;5038239;28;20056;-66
2023/11/26 09:19:16;;;;;;;1.58;1.00;;;19.00;56.40;;;;;;5038796;28;20464;-67
2023/11/26 09:21:49;;;;;;;1.52;0.90;;;19.00;56.40;;;;;;5020488;28;20398;-66
2023/11/26 09:24:17;;;;;;;1.58;0.80;;;18.90;56.30;;;;;;5036563;28;20437;-67
2023/11/26 09:26:44;;;;;;;1.10;0.90;;;19.00;56.40;;;;;;5038146;28;20045;-67
2023/11/26 09:29:09;;;;;;;1.67;0.90;;;19.00;56.40;;;;;;5018360;28;20029;-67
2023/11/26 09:31:41;;;;;;;2.10;1.10;;;19.00;56.40;;;;;;5037594;28;20052;-67
2023/11/26 09:34:07;;;;;;;1.20;0.90;;;18.90;56.40;;;;;;5018962;28;20113;-68
2023/11/26 09:36:33;;;;;;;1.20;0.80;;;18.90;56.40;;;;;;5038438;28;20109;-68
2023/11/26 09:38:59;;;;;;;1.30;0.70;;;18.90;56.40;;;;;;5038269;28;20029;-67
2023/11/26 09:41:25;;;;;;;1.45;0.80;;;18.90;56.40;;;;;;5021609;28;20064;-67
2023/11/26 09:43:51;;;;;;;1.10;0.80;;;18.90;56.50;;;;;;5037361;28;20060;-67
2023/11/26 09:46:20;;;;;;;1.90;1.10;;;18.90;56.40;;;;;;5039885;28;20021;-66
2023/11/26 09:48:46;;;;;;;1.25;0.90;;;18.90;56.50;;;;;;5037950;28;20057;-67
2023/11/26 09:51:13;;;;;;;1.63;0.90;;;18.90;56.50;;;;;;5037728;28;20441;-66
2023/11/26 09:53:40;;;;;;;1.85;0.90;;;18.90;56.50;;;;;;5036824;28;20434;-66
2023/11/26 09:56:10;;;;;;;1.45;1.00;;;18.90;56.50;;;;;;5035885;28;20025;-67
2023/11/26 09:58:39;;;;;;;1.27;0.90;;;18.90;56.50;;;;;;5034817;28;20032;-66
2023/11/26 10:01:09;;;;;;;1.65;0.90;;;18.90;56.50;;;;;;5036745;28;20480;-66
2023/11/26 10:04:04;;;;;;;1.85;1.20;;;18.90;56.60;;;;;;5038201;28;20029;-66
2023/11/26 10:06:30;;;;;;;1.10;0.90;;;18.90;56.60;;;;;;5037359;28;20032;-66
2023/11/26 10:08:57;;;;;;;0.70;0.70;;;18.90;56.60;;;;;;5037814;28;20029;-66
2023/11/26 10:11:25;;;;;;;1.20;0.90;;;18.90;56.60;;;;;;5035735;28;20024;-66
2023/11/26 10:13:52;;;;;;;2.08;1.10;;;18.90;57.20;;;;;;5037310;28;20021;-66
2023/11/26 10:16:33;;;;;;;1.40;0.85;;;18.90;57.20;;;;;;5036117;28;20060;-70
2023/11/26 10:19:00;;;;;;;1.23;0.85;;;18.90;56.70;;;;;;5037853;28;20061;-75
2023/11/26 10:21:26;;;;;;;1.70;1.10;;;18.90;56.70;;;;;;5037407;28;20060;-73
2023/11/26 10:23:52;;;;;;;1.00;0.90;;;18.90;56.70;;;;;;5019199;28;20032;-72
2023/11/26 10:26:20;;;;;;;1.48;0.90;;;18.90;56.70;;;;;;5039635;28;20056;-68
2023/11/26 10:29:07;;;;;;;2.03;0.95;;;18.90;56.80;;;;;;5035888;28;20500;-66
2023/11/26 10:31:33;;;;;;;1.15;0.70;;;18.90;57.00;;;;;;5020928;28;20030;-67
2023/11/26 10:34:08;;;;;;;1.35;0.90;;;19.00;57.20;;;;;;5036800;28;20099;-66
2023/11/26 10:36:35;;;;;;;1.42;0.80;;;19.00;57.30;;;;;;5036585;28;20044;-67
2023/11/26 10:39:04;;;;;;;1.58;0.90;;;19.10;57.30;;;;;;5027499;28;20508;-67
2023/11/26 10:41:37;;;;;;;1.33;0.88;;;19.10;57.30;;;;;;5035264;28;20395;-66
2023/11/26 10:44:05;;;;;;;1.73;1.10;;;19.10;57.30;;;;;;5034821;28;20492;-66
2023/11/26 10:46:35;;;;;;;2.00;1.02;;;19.10;57.30;;;;;;5035925;28;20025;-67
2023/11/26 10:49:30;;;;;;;1.75;1.00;;;19.20;57.40;;;;;;5037034;28;20073;-66
2023/11/26 10:52:10;;;;;;;1.58;1.02;;;19.30;57.50;;;;;;5036352;28;20526;-66
2023/11/26 10:54:44;;;;;;;1.58;0.82;;;19.30;57.40;;;;;;5037468;28;20036;-66
2023/11/26 10:57:14;;;;;;;1.27;0.80;;;19.30;57.40;;;;;;5034613;28;20033;-72
2023/11/26 10:59:45;;;;;;;1.38;1.05;;;19.40;57.40;;;;;;5035103;28;20117;-72
2023/11/26 11:02:15;;;;;;;2.00;1.00;;;19.40;57.40;;;;;;5035480;28;20421;-70
2023/11/26 11:04:46;;;;;;;2.30;0.90;;;19.40;57.40;;;;;;5035585;28;20037;-71
2023/11/26 11:07:13;;;;;;;1.30;0.88;;;19.50;57.50;;;;;;5019993;28;20069;-72
2023/11/26 11:10:07;;;;;;;1.50;0.85;;;19.50;57.50;;;;;;5035662;28;20021;-71
2023/11/26 11:12:48;;;;;;;1.73;0.82;;;19.50;57.60;;;;;;5025399;28;20056;-71
2023/11/26 11:15:16;;;;;;;1.70;0.85;;;19.60;57.70;;;;;;5036629;28;20037;-71
2023/11/26 11:17:42;;;;;;;1.98;1.10;;;19.60;57.60;;;;;;5033631;28;20472;-72
2023/11/26 11:20:08;;;;;;;2.28;1.20;;;19.60;57.70;;;;;;5038398;28;20036;-72
2023/11/26 11:22:43;;;;;;;1.85;0.93;;;19.60;57.70;;;;;;5034857;28;20373;-70
2023/11/26 11:25:18;;;;;;;2.17;1.20;;;19.60;57.80;;;;;;5036435;28;20037;-72
2023/11/26 11:27:50;;;;;;;2.05;1.00;;;19.60;57.80;;;;;;5036948;28;20059;-72
2023/11/26 11:30:41;;;;;;;2.78;1.15;;;19.60;57.90;;;;;;5034920;28;20166;-72
2023/11/26 11:33:09;;;;;;;2.22;0.90;;;19.60;58.00;;;;;;5036413;28;20061;-71
2023/11/26 11:35:45;;;;;;;2.45;1.23;;;19.60;57.90;;;;;;5035834;28;20017;-71
2023/11/26 11:38:12;;;;;;;1.25;0.90;;;19.60;58.20;;;;;;5036563;28;20021;-67
2023/11/26 11:41:08;;;;;;;2.33;1.00;;;19.60;58.00;;;;;;5035421;28;20330;-66
2023/11/26 11:43:35;;;;;;;2.33;1.17;;;19.60;58.10;;;;;;5016600;28;20029;-67
2023/11/26 11:46:30;;;;;;;1.35;0.85;;;19.60;58.00;;;;;;5036285;28;20025;-66
2023/11/26 11:48:57;;;;;;;2.25;1.00;;;19.60;58.20;;;;;;5035139;28;20393;-66
2023/11/26 11:51:34;;;;;;;1.98;1.02;;;19.70;58.20;;;;;;5034449;28;20018;-66
2023/11/26 11:54:33;;;;;;;3.90;1.05;;;19.70;58.20;;;;;;5034335;28;20082;-66
2023/11/26 11:57:00;;;;;;;3.15;1.02;;;19.70;58.20;;;;;;5039244;28;20043;-66
2023/11/26 11:59:26;;;;;;;2.70;1.35;;;19.70;58.00;;;;;;5034878;28;20457;-66
2023/11/26 12:01:52;;;;;;;1.95;1.10;;;19.80;58.70;;;;;;5035839;28;20044;-66
2023/11/26 12:04:18;;;;;;;2.40;1.10;;;19.80;58.10;;;;;;5035419;28;20491;-66
2023/11/26 12:06:50;;;;;;;2.22;0.90;;;19.70;58.20;;;;;;5034280;28;20026;-65
2023/11/26 12:09:16;;;;;;;3.47;1.30;;;19.80;58.20;;;;;;5018986;28;20033;-65
2023/11/26 12:11:49;;;;;;;2.75;1.00;;;19.80;58.20;;;;;;5035163;28;20140;-66
2023/11/26 12:14:24;;;;;;;2.28;1.00;;;19.80;58.30;;;;;;5035577;28;20029;-66
2023/11/26 12:16:50;;;;;;;1.85;0.98;;;19.70;58.20;;;;;;5018388;28;20028;-67
2023/11/26 12:19:16;;;;;;;1.30;0.90;;;19.80;58.30;;;;;;5035644;28;20044;-66
2023/11/26 12:21:42;;;;;;;1.80;1.00;;;19.70;58.40;;;;;;5035146;28;20025;-66
2023/11/26 12:24:20;;;;;;;3.28;1.20;;;19.80;58.50;;;;;;5033984;28;20029;-67
2023/11/26 12:26:45;;;;;;;1.60;1.08;;;19.70;58.50;;;;;;5035518;28;20037;-66
2023/11/26 12:29:14;;;;;;;2.75;1.20;;;19.80;58.60;;;;;;5018667;28;20037;-66
2023/11/26 12:31:41;;;;;;;2.13;1.10;;;19.70;58.50;;;;;;5018338;28;20556;-66
2023/11/26 12:34:07;;;;;;;1.90;1.15;;;19.80;58.70;;;;;;5035689;28;20211;-66
2023/11/26 12:36:33;;;;;;;2.08;1.38;;;19.70;58.70;;;;;;5034706;28;20045;-66
2023/11/26 12:38:59;;;;;;;2.30;1.05;;;19.70;58.70;;;;;;5035864;28;20489;-67
2023/11/26 12:41:25;;;;;;;2.20;1.17;;;19.70;58.70;;;;;;5035753;28;20033;-67
2023/11/26 12:43:55;;;;;;;2.42;1.10;;;19.70;58.70;;;;;;5019189;28;20044;-66
2023/11/26 12:46:24;;;;;;;2.22;1.10;;;19.80;58.80;;;;;;5036022;28;20479;-65
2023/11/26 12:48:51;;;;;;;2.30;1.15;;;19.70;58.80;;;;;;5034960;28;20033;-71
2023/11/26 12:51:16;;;;;;;2.70;1.23;;;19.70;58.70;;;;;;5035931;28;20029;-71
2023/11/26 12:53:42;;;;;;;3.55;1.10;;;19.80;58.90;;;;;;5034388;28;20454;-71
2023/11/26 12:56:09;;;;;;;1.85;1.20;;;19.80;58.90;;;;;;5034698;28;20476;-71